sensor_id;sensor_type;location;lat;lon;timestamp;temperature;humidity
14850;DHT22;7517;48.400;11.770;2022-12-05T00:00:50;8.50;75.40
14850;DHT22;7517;48.400;11.770;2022-12-05T00:03:19;8.50;75.60
14850;DHT22;7517;48.400;11.770;2022-12-05T00:05:47;8.50;75.60
14850;DHT22;7517;48.400;11.770;2022-12-05T00:08:15;8.50;75.70
14850;DHT22;7517;48.400;11.770;2022-12-05T00:10:42;8.50;75.70
14850;DHT22;7517;48.400;11.770;2022-12-05T00:13:09;8.50;75.60
14850;DHT22;7517;48.400;11.770;2022-12-05T00:15:37;8.50;75.50
14850;DHT22;7517;48.400;11.770;2022-12-05T00:18:05;8.50;75.30
14850;DHT22;7517;48.400;11.770;2022-12-05T00:20:33;8.50;75.40
14850;DHT22;7517;48.400;11.770;2022-12-05T00:23:01;8.60;75.50
14850;DHT22;7517;48.400;11.770;2022-12-05T00:25:28;8.50;75.40
14850;DHT22;7517;48.400;11.770;2022-12-05T00:27:55;8.50;75.20
14850;DHT22;7517;48.400;11.770;2022-12-05T00:30:23;8.50;75.20
14850;DHT22;7517;48.400;11.770;2022-12-05T00:32:50;8.50;75.20
14850;DHT22;7517;48.400;11.770;2022-12-05T00:35:17;8.50;75.20
14850;DHT22;7517;48.400;11.770;2022-12-05T00:37:44;8.50;75.20
14850;DHT22;7517;48.400;11.770;2022-12-05T00:40:13;8.50;75.10
14850;DHT22;7517;48.400;11.770;2022-12-05T00:42:40;8.50;75.90
14850;DHT22;7517;48.400;11.770;2022-12-05T00:45:08;8.50;75.30
14850;DHT22;7517;48.400;11.770;2022-12-05T00:47:36;8.50;75.20
14850;DHT22;7517;48.400;11.770;2022-12-05T00:50:04;8.50;75.10
14850;DHT22;7517;48.400;11.770;2022-12-05T00:52:32;8.50;75.00
14850;DHT22;7517;48.400;11.770;2022-12-05T00:54:59;8.50;74.90
14850;DHT22;7517;48.400;11.770;2022-12-05T00:57:28;8.50;74.90
14850;DHT22;7517;48.400;11.770;2022-12-05T00:59:55;8.50;75.10
14850;DHT22;7517;48.400;11.770;2022-12-05T01:02:22;8.40;75.10
14850;DHT22;7517;48.400;11.770;2022-12-05T01:04:49;8.40;75.00
14850;DHT22;7517;48.400;11.770;2022-12-05T01:07:16;8.40;74.90
14850;DHT22;7517;48.400;11.770;2022-12-05T01:09:43;8.40;75.00
14850;DHT22;7517;48.400;11.770;2022-12-05T01:12:11;8.40;75.00
14850;DHT22;7517;48.400;11.770;2022-12-05T01:14:39;8.40;75.00
14850;DHT22;7517;48.400;11.770;2022-12-05T01:17:06;8.30;74.90
14850;DHT22;7517;48.400;11.770;2022-12-05T01:19:33;8.40;75.00
14850;DHT22;7517;48.400;11.770;2022-12-05T01:22:00;8.40;75.00
14850;DHT22;7517;48.400;11.770;2022-12-05T01:24:28;8.40;75.00
14850;DHT22;7517;48.400;11.770;2022-12-05T01:26:56;8.40;75.00
14850;DHT22;7517;48.400;11.770;2022-12-05T01:29:24;8.40;75.00
14850;DHT22;7517;48.400;11.770;2022-12-05T01:31:53;8.30;74.70
14850;DHT22;7517;48.400;11.770;2022-12-05T01:34:21;8.30;74.60
14850;DHT22;7517;48.400;11.770;2022-12-05T01:36:48;8.30;74.50
14850;DHT22;7517;48.400;11.770;2022-12-05T01:39:15;8.30;74.60
14850;DHT22;7517;48.400;11.770;2022-12-05T01:41:44;8.30;74.60
14850;DHT22;7517;48.400;11.770;2022-12-05T01:47:28;8.20;74.50
14850;DHT22;7517;48.400;11.770;2022-12-05T01:49:58;8.20;74.70
14850;DHT22;7517;48.400;11.770;2022-12-05T01:52:28;8.20;74.80
14850;DHT22;7517;48.400;11.770;2022-12-05T01:55:00;8.20;74.90
14850;DHT22;7517;48.400;11.770;2022-12-05T01:57:32;8.10;74.90
14850;DHT22;7517;48.400;11.770;2022-12-05T02:00:04;8.10;75.00
14850;DHT22;7517;48.400;11.770;2022-12-05T02:02:36;8.10;75.00
14850;DHT22;7517;48.400;11.770;2022-12-05T02:05:09;8.10;75.00
14850;DHT22;7517;48.400;11.770;2022-12-05T02:07:41;8.10;75.70
14850;DHT22;7517;48.400;11.770;2022-12-05T02:10:10;8.20;75.10
14850;DHT22;7517;48.400;11.770;2022-12-05T02:12:37;8.10;75.10
14850;DHT22;7517;48.400;11.770;2022-12-05T02:15:31;8.10;75.20
14850;DHT22;7517;48.400;11.770;2022-12-05T02:18:19;8.10;75.10
14850;DHT22;7517;48.400;11.770;2022-12-05T02:21:05;8.10;75.30
14850;DHT22;7517;48.400;11.770;2022-12-05T02:27:38;8.20;75.30
14850;DHT22;7517;48.400;11.770;2022-12-05T02:30:19;8.20;75.20
14850;DHT22;7517;48.400;11.770;2022-12-05T02:32:58;8.10;75.10
14850;DHT22;7517;48.400;11.770;2022-12-05T02:35:49;8.10;75.00
14850;DHT22;7517;48.400;11.770;2022-12-05T02:38:26;8.10;74.90
14850;DHT22;7517;48.400;11.770;2022-12-05T02:41:04;8.10;74.90
14850;DHT22;7517;48.400;11.770;2022-12-05T02:43:43;8.10;74.70
14850;DHT22;7517;48.400;11.770;2022-12-05T02:46:21;8.10;74.90
14850;DHT22;7517;48.400;11.770;2022-12-05T02:48:53;8.10;74.80
14850;DHT22;7517;48.400;11.770;2022-12-05T02:51:28;8.00;75.00
14850;DHT22;7517;48.400;11.770;2022-12-05T02:54:00;8.00;75.10
14850;DHT22;7517;48.400;11.770;2022-12-05T02:56:31;8.00;75.20
14850;DHT22;7517;48.400;11.770;2022-12-05T02:59:00;7.90;75.00
14850;DHT22;7517;48.400;11.770;2022-12-05T03:01:31;8.00;75.20
14850;DHT22;7517;48.400;11.770;2022-12-05T03:04:01;8.00;75.30
14850;DHT22;7517;48.400;11.770;2022-12-05T03:06:34;8.00;75.40
14850;DHT22;7517;48.400;11.770;2022-12-05T03:09:08;8.00;75.30
14850;DHT22;7517;48.400;11.770;2022-12-05T03:11:42;8.00;75.30
14850;DHT22;7517;48.400;11.770;2022-12-05T03:14:16;8.00;75.40
14850;DHT22;7517;48.400;11.770;2022-12-05T03:16:49;8.00;75.40
14850;DHT22;7517;48.400;11.770;2022-12-05T03:19:22;8.00;75.20
14850;DHT22;7517;48.400;11.770;2022-12-05T03:21:55;8.00;75.20
14850;DHT22;7517;48.400;11.770;2022-12-05T03:24:27;8.00;75.40
14850;DHT22;7517;48.400;11.770;2022-12-05T03:26:59;8.00;75.20
14850;DHT22;7517;48.400;11.770;2022-12-05T03:29:35;8.00;75.20
14850;DHT22;7517;48.400;11.770;2022-12-05T03:32:12;8.00;76.00
14850;DHT22;7517;48.400;11.770;2022-12-05T03:34:50;7.90;75.10
14850;DHT22;7517;48.400;11.770;2022-12-05T03:37:37;7.90;75.00
14850;DHT22;7517;48.400;11.770;2022-12-05T03:40:18;7.90;75.00
14850;DHT22;7517;48.400;11.770;2022-12-05T03:42:56;7.90;75.00
14850;DHT22;7517;48.400;11.770;2022-12-05T03:45:33;7.90;75.10
14850;DHT22;7517;48.400;11.770;2022-12-05T03:48:14;7.80;75.00
14850;DHT22;7517;48.400;11.770;2022-12-05T03:50:49;7.90;75.10
14850;DHT22;7517;48.400;11.770;2022-12-05T03:53:23;7.90;75.10
14850;DHT22;7517;48.400;11.770;2022-12-05T03:55:59;7.90;75.10
14850;DHT22;7517;48.400;11.770;2022-12-05T03:58:34;7.90;75.30
14850;DHT22;7517;48.400;11.770;2022-12-05T04:01:06;7.80;75.40
14850;DHT22;7517;48.400;11.770;2022-12-05T04:03:41;7.80;75.30
14850;DHT22;7517;48.400;11.770;2022-12-05T04:06:15;7.80;75.40
14850;DHT22;7517;48.400;11.770;2022-12-05T04:08:49;7.80;75.40
14850;DHT22;7517;48.400;11.770;2022-12-05T04:11:23;7.80;75.40
14850;DHT22;7517;48.400;11.770;2022-12-05T04:13:54;7.80;75.50
14850;DHT22;7517;48.400;11.770;2022-12-05T04:16:29;7.80;75.50
14850;DHT22;7517;48.400;11.770;2022-12-05T04:19:24;7.80;75.50
14850;DHT22;7517;48.400;11.770;2022-12-05T04:22:14;7.70;75.50
14850;DHT22;7517;48.400;11.770;2022-12-05T04:24:41;7.80;75.80
14850;DHT22;7517;48.400;11.770;2022-12-05T04:27:30;7.80;75.80
14850;DHT22;7517;48.400;11.770;2022-12-05T04:30:06;7.80;75.70
14850;DHT22;7517;48.400;11.770;2022-12-05T04:32:39;7.80;75.80
14850;DHT22;7517;48.400;11.770;2022-12-05T04:35:17;7.80;75.90
14850;DHT22;7517;48.400;11.770;2022-12-05T04:37:53;7.80;76.00
14850;DHT22;7517;48.400;11.770;2022-12-05T04:40:33;7.80;76.00
14850;DHT22;7517;48.400;11.770;2022-12-05T04:43:03;7.80;76.00
14850;DHT22;7517;48.400;11.770;2022-12-05T04:45:33;7.80;76.10
14850;DHT22;7517;48.400;11.770;2022-12-05T04:48:09;7.90;76.20
14850;DHT22;7517;48.400;11.770;2022-12-05T04:50:41;7.90;76.20
14850;DHT22;7517;48.400;11.770;2022-12-05T04:53:11;7.90;76.20
14850;DHT22;7517;48.400;11.770;2022-12-05T04:55:43;7.90;76.20
14850;DHT22;7517;48.400;11.770;2022-12-05T04:58:19;7.90;76.20
14850;DHT22;7517;48.400;11.770;2022-12-05T05:00:55;7.90;76.20
14850;DHT22;7517;48.400;11.770;2022-12-05T05:03:31;7.90;77.10
14850;DHT22;7517;48.400;11.770;2022-12-05T05:06:06;8.00;76.40
14850;DHT22;7517;48.400;11.770;2022-12-05T05:08:36;8.00;76.40
14850;DHT22;7517;48.400;11.770;2022-12-05T05:11:14;8.00;76.30
14850;DHT22;7517;48.400;11.770;2022-12-05T05:13:43;8.00;76.30
14850;DHT22;7517;48.400;11.770;2022-12-05T05:16:13;8.00;76.40
14850;DHT22;7517;48.400;11.770;2022-12-05T05:18:43;8.10;76.40
14850;DHT22;7517;48.400;11.770;2022-12-05T05:21:18;8.10;76.40
14850;DHT22;7517;48.400;11.770;2022-12-05T05:23:47;8.10;76.40
14850;DHT22;7517;48.400;11.770;2022-12-05T05:26:15;8.20;76.40
14850;DHT22;7517;48.400;11.770;2022-12-05T05:28:43;8.20;76.20
14850;DHT22;7517;48.400;11.770;2022-12-05T05:31:11;8.20;76.10
14850;DHT22;7517;48.400;11.770;2022-12-05T05:33:39;8.20;76.10
14850;DHT22;7517;48.400;11.770;2022-12-05T05:36:08;8.20;75.90
14850;DHT22;7517;48.400;11.770;2022-12-05T05:38:39;8.20;75.90
14850;DHT22;7517;48.400;11.770;2022-12-05T05:41:12;8.20;75.90
14850;DHT22;7517;48.400;11.770;2022-12-05T05:43:40;8.20;75.90
14850;DHT22;7517;48.400;11.770;2022-12-05T05:46:08;8.10;76.00
14850;DHT22;7517;48.400;11.770;2022-12-05T05:48:36;8.20;76.00
14850;DHT22;7517;48.400;11.770;2022-12-05T05:51:05;8.20;76.00
14850;DHT22;7517;48.400;11.770;2022-12-05T05:53:34;8.20;76.10
14850;DHT22;7517;48.400;11.770;2022-12-05T05:56:04;8.20;76.00
14850;DHT22;7517;48.400;11.770;2022-12-05T05:58:34;8.20;76.00
14850;DHT22;7517;48.400;11.770;2022-12-05T06:01:03;8.20;76.00
14850;DHT22;7517;48.400;11.770;2022-12-05T06:03:30;8.20;75.90
14850;DHT22;7517;48.400;11.770;2022-12-05T06:05:58;8.20;76.00
14850;DHT22;7517;48.400;11.770;2022-12-05T06:08:28;8.30;76.10
14850;DHT22;7517;48.400;11.770;2022-12-05T06:10:55;8.30;76.20
14850;DHT22;7517;48.400;11.770;2022-12-05T06:13:24;8.30;76.10
14850;DHT22;7517;48.400;11.770;2022-12-05T06:15:52;8.30;76.10
14850;DHT22;7517;48.400;11.770;2022-12-05T06:18:19;8.30;76.00
14850;DHT22;7517;48.400;11.770;2022-12-05T06:20:51;8.30;76.00
14850;DHT22;7517;48.400;11.770;2022-12-05T06:23:18;8.40;76.00
14850;DHT22;7517;48.400;11.770;2022-12-05T06:25:47;8.40;75.90
14850;DHT22;7517;48.400;11.770;2022-12-05T06:28:15;8.40;76.00
14850;DHT22;7517;48.400;11.770;2022-12-05T06:30:44;8.40;76.00
14850;DHT22;7517;48.400;11.770;2022-12-05T06:33:12;8.50;76.00
14850;DHT22;7517;48.400;11.770;2022-12-05T06:35:39;8.40;76.00
14850;DHT22;7517;48.400;11.770;2022-12-05T06:38:07;8.50;76.00
14850;DHT22;7517;48.400;11.770;2022-12-05T06:40:39;8.50;76.00
14850;DHT22;7517;48.400;11.770;2022-12-05T06:43:07;8.60;76.00
14850;DHT22;7517;48.400;11.770;2022-12-05T06:45:36;8.60;75.90
14850;DHT22;7517;48.400;11.770;2022-12-05T06:48:05;8.60;75.80
14850;DHT22;7517;48.400;11.770;2022-12-05T06:50:32;8.70;75.70
14850;DHT22;7517;48.400;11.770;2022-12-05T06:52:59;8.70;75.60
14850;DHT22;7517;48.400;11.770;2022-12-05T06:55:26;8.70;75.30
14850;DHT22;7517;48.400;11.770;2022-12-05T06:57:54;8.70;75.20
14850;DHT22;7517;48.400;11.770;2022-12-05T07:00:21;8.70;75.20
14850;DHT22;7517;48.400;11.770;2022-12-05T07:03:09;8.70;75.00
14850;DHT22;7517;48.400;11.770;2022-12-05T07:05:36;8.70;75.20
14850;DHT22;7517;48.400;11.770;2022-12-05T07:08:04;8.70;75.20
14850;DHT22;7517;48.400;11.770;2022-12-05T07:10:31;8.70;75.30
14850;DHT22;7517;48.400;11.770;2022-12-05T07:12:58;8.70;75.20
14850;DHT22;7517;48.400;11.770;2022-12-05T07:15:25;8.70;75.20
14850;DHT22;7517;48.400;11.770;2022-12-05T07:17:52;8.70;75.10
14850;DHT22;7517;48.400;11.770;2022-12-05T07:20:21;8.70;75.10
14850;DHT22;7517;48.400;11.770;2022-12-05T07:22:48;8.70;75.10
14850;DHT22;7517;48.400;11.770;2022-12-05T07:25:15;8.70;74.90
14850;DHT22;7517;48.400;11.770;2022-12-05T07:27:44;8.80;74.90
14850;DHT22;7517;48.400;11.770;2022-12-05T07:30:12;8.70;74.90
14850;DHT22;7517;48.400;11.770;2022-12-05T07:32:40;8.70;75.10
14850;DHT22;7517;48.400;11.770;2022-12-05T07:35:07;8.70;75.10
14850;DHT22;7517;48.400;11.770;2022-12-05T07:37:36;8.70;75.10
14850;DHT22;7517;48.400;11.770;2022-12-05T07:40:04;8.70;75.20
14850;DHT22;7517;48.400;11.770;2022-12-05T07:42:34;8.80;75.40
14850;DHT22;7517;48.400;11.770;2022-12-05T07:45:01;8.80;75.50
14850;DHT22;7517;48.400;11.770;2022-12-05T07:47:28;8.80;75.50
14850;DHT22;7517;48.400;11.770;2022-12-05T07:49:56;8.80;75.30
14850;DHT22;7517;48.400;11.770;2022-12-05T07:52:23;8.80;75.20
14850;DHT22;7517;48.400;11.770;2022-12-05T07:54:51;8.80;75.20
14850;DHT22;7517;48.400;11.770;2022-12-05T07:57:19;8.90;75.30
14850;DHT22;7517;48.400;11.770;2022-12-05T07:59:46;8.90;75.30
14850;DHT22;7517;48.400;11.770;2022-12-05T08:02:13;8.90;75.20
14850;DHT22;7517;48.400;11.770;2022-12-05T08:04:40;8.90;75.10
14850;DHT22;7517;48.400;11.770;2022-12-05T08:07:09;8.90;75.30
14850;DHT22;7517;48.400;11.770;2022-12-05T08:09:36;9.00;75.20
14850;DHT22;7517;48.400;11.770;2022-12-05T08:12:05;8.90;75.20
14850;DHT22;7517;48.400;11.770;2022-12-05T08:14:33;8.90;75.00
14850;DHT22;7517;48.400;11.770;2022-12-05T08:17:00;8.90;74.90
14850;DHT22;7517;48.400;11.770;2022-12-05T08:19:29;9.00;75.00
14850;DHT22;7517;48.400;11.770;2022-12-05T08:21:56;8.90;75.00
14850;DHT22;7517;48.400;11.770;2022-12-05T08:24:23;9.00;75.00
14850;DHT22;7517;48.400;11.770;2022-12-05T08:26:50;8.90;75.00
14850;DHT22;7517;48.400;11.770;2022-12-05T08:29:20;8.90;74.90
14850;DHT22;7517;48.400;11.770;2022-12-05T08:31:49;8.90;74.70
14850;DHT22;7517;48.400;11.770;2022-12-05T08:34:18;8.90;74.80
14850;DHT22;7517;48.400;11.770;2022-12-05T08:36:46;8.90;74.80
14850;DHT22;7517;48.400;11.770;2022-12-05T08:39:16;8.90;74.70
14850;DHT22;7517;48.400;11.770;2022-12-05T08:41:46;8.90;74.70
14850;DHT22;7517;48.400;11.770;2022-12-05T08:44:14;8.80;74.70
14850;DHT22;7517;48.400;11.770;2022-12-05T08:46:45;8.90;74.90
14850;DHT22;7517;48.400;11.770;2022-12-05T08:49:15;8.90;74.90
14850;DHT22;7517;48.400;11.770;2022-12-05T08:51:43;8.90;75.10
14850;DHT22;7517;48.400;11.770;2022-12-05T08:54:10;8.80;75.20
14850;DHT22;7517;48.400;11.770;2022-12-05T08:56:38;8.80;75.40
14850;DHT22;7517;48.400;11.770;2022-12-05T08:59:05;8.80;75.30
14850;DHT22;7517;48.400;11.770;2022-12-05T09:01:34;8.80;75.60
14850;DHT22;7517;48.400;11.770;2022-12-05T09:04:04;8.80;76.40
14850;DHT22;7517;48.400;11.770;2022-12-05T09:06:33;8.70;75.70
14850;DHT22;7517;48.400;11.770;2022-12-05T09:09:04;8.70;75.60
14850;DHT22;7517;48.400;11.770;2022-12-05T09:11:35;8.70;75.70
14850;DHT22;7517;48.400;11.770;2022-12-05T09:14:05;8.70;76.00
14850;DHT22;7517;48.400;11.770;2022-12-05T09:16:34;8.60;76.40
14850;DHT22;7517;48.400;11.770;2022-12-05T09:19:04;8.70;76.80
14850;DHT22;7517;48.400;11.770;2022-12-05T09:21:32;8.60;76.90
14850;DHT22;7517;48.400;11.770;2022-12-05T09:23:59;8.60;77.00
14850;DHT22;7517;48.400;11.770;2022-12-05T09:26:28;8.60;77.20
14850;DHT22;7517;48.400;11.770;2022-12-05T09:28:56;8.50;77.20
14850;DHT22;7517;48.400;11.770;2022-12-05T09:31:25;8.50;77.30
14850;DHT22;7517;48.400;11.770;2022-12-05T09:33:53;8.50;77.30
14850;DHT22;7517;48.400;11.770;2022-12-05T09:36:24;8.50;77.50
14850;DHT22;7517;48.400;11.770;2022-12-05T09:38:53;8.50;77.60
14850;DHT22;7517;48.400;11.770;2022-12-05T09:41:41;8.50;77.80
14850;DHT22;7517;48.400;11.770;2022-12-05T09:44:43;8.50;78.00
14850;DHT22;7517;48.400;11.770;2022-12-05T09:47:28;8.50;78.10
14850;DHT22;7517;48.400;11.770;2022-12-05T09:50:10;8.50;78.20
14850;DHT22;7517;48.400;11.770;2022-12-05T09:52:48;8.50;78.20
14850;DHT22;7517;48.400;11.770;2022-12-05T09:55:26;8.50;78.20
14850;DHT22;7517;48.400;11.770;2022-12-05T09:57:58;8.50;78.30
14850;DHT22;7517;48.400;11.770;2022-12-05T10:00:28;8.60;78.30
14850;DHT22;7517;48.400;11.770;2022-12-05T10:03:07;8.60;78.30
14850;DHT22;7517;48.400;11.770;2022-12-05T10:05:48;8.60;78.40
14850;DHT22;7517;48.400;11.770;2022-12-05T10:08:30;8.60;78.50
14850;DHT22;7517;48.400;11.770;2022-12-05T10:11:05;8.60;78.50
14850;DHT22;7517;48.400;11.770;2022-12-05T10:13:47;8.70;78.40
14850;DHT22;7517;48.400;11.770;2022-12-05T10:16:28;8.70;78.20
14850;DHT22;7517;48.400;11.770;2022-12-05T10:19:01;8.60;78.10
14850;DHT22;7517;48.400;11.770;2022-12-05T10:21:37;8.70;78.10
14850;DHT22;7517;48.400;11.770;2022-12-05T10:24:14;8.70;78.10
14850;DHT22;7517;48.400;11.770;2022-12-05T10:26:53;8.70;78.10
14850;DHT22;7517;48.400;11.770;2022-12-05T10:29:28;8.70;78.10
14850;DHT22;7517;48.400;11.770;2022-12-05T10:32:03;8.70;78.20
14850;DHT22;7517;48.400;11.770;2022-12-05T10:34:37;8.70;78.10
14850;DHT22;7517;48.400;11.770;2022-12-05T10:37:13;8.70;78.10
14850;DHT22;7517;48.400;11.770;2022-12-05T10:39:44;8.80;78.50
14850;DHT22;7517;48.400;11.770;2022-12-05T10:42:14;8.80;78.70
14850;DHT22;7517;48.400;11.770;2022-12-05T10:44:44;8.80;78.80
14850;DHT22;7517;48.400;11.770;2022-12-05T10:47:12;8.80;78.80
14850;DHT22;7517;48.400;11.770;2022-12-05T10:49:39;8.80;78.80
14850;DHT22;7517;48.400;11.770;2022-12-05T10:52:06;8.80;78.80
14850;DHT22;7517;48.400;11.770;2022-12-05T10:54:40;8.80;79.00
14850;DHT22;7517;48.400;11.770;2022-12-05T10:57:22;9.00;79.40
14850;DHT22;7517;48.400;11.770;2022-12-05T10:59:50;8.90;79.50
14850;DHT22;7517;48.400;11.770;2022-12-05T11:02:22;9.00;79.50
14850;DHT22;7517;48.400;11.770;2022-12-05T11:04:53;9.00;79.60
14850;DHT22;7517;48.400;11.770;2022-12-05T11:07:28;9.00;79.60
14850;DHT22;7517;48.400;11.770;2022-12-05T11:09:56;9.10;79.70
14850;DHT22;7517;48.400;11.770;2022-12-05T11:12:28;9.10;80.40
14850;DHT22;7517;48.400;11.770;2022-12-05T11:15:04;9.10;79.90
14850;DHT22;7517;48.400;11.770;2022-12-05T11:17:46;9.20;80.00
14850;DHT22;7517;48.400;11.770;2022-12-05T11:20:37;9.20;80.30
14850;DHT22;7517;48.400;11.770;2022-12-05T11:23:24;9.30;80.30
14850;DHT22;7517;48.400;11.770;2022-12-05T11:25:53;9.40;80.40
14850;DHT22;7517;48.400;11.770;2022-12-05T11:28:32;9.40;80.40
14850;DHT22;7517;48.400;11.770;2022-12-05T11:31:03;9.40;80.40
14850;DHT22;7517;48.400;11.770;2022-12-05T11:33:34;9.50;80.50
14850;DHT22;7517;48.400;11.770;2022-12-05T11:36:09;9.40;80.20
14850;DHT22;7517;48.400;11.770;2022-12-05T11:38:40;9.60;80.40
14850;DHT22;7517;48.400;11.770;2022-12-05T11:41:23;9.60;80.30
14850;DHT22;7517;48.400;11.770;2022-12-05T11:44:18;9.70;80.10
14850;DHT22;7517;48.400;11.770;2022-12-05T11:47:09;9.70;79.90
14850;DHT22;7517;48.400;11.770;2022-12-05T11:53:00;9.80;80.00
14850;DHT22;7517;48.400;11.770;2022-12-05T11:55:41;9.80;79.90
14850;DHT22;7517;48.400;11.770;2022-12-05T11:58:54;9.90;80.00
14850;DHT22;7517;48.400;11.770;2022-12-05T12:01:43;9.90;80.20
14850;DHT22;7517;48.400;11.770;2022-12-05T12:04:34;10.00;80.20
14850;DHT22;7517;48.400;11.770;2022-12-05T12:07:36;10.00;80.20
14850;DHT22;7517;48.400;11.770;2022-12-05T12:10:21;10.10;80.20
14850;DHT22;7517;48.400;11.770;2022-12-05T12:13:05;10.00;80.10
14850;DHT22;7517;48.400;11.770;2022-12-05T12:15:51;10.20;80.20
14850;DHT22;7517;48.400;11.770;2022-12-05T12:18:51;10.20;80.10
14850;DHT22;7517;48.400;11.770;2022-12-05T12:21:40;10.20;79.80
14850;DHT22;7517;48.400;11.770;2022-12-05T12:24:23;10.30;79.90
14850;DHT22;7517;48.400;11.770;2022-12-05T12:27:05;10.30;79.80
14850;DHT22;7517;48.400;11.770;2022-12-05T12:29:53;10.30;79.80
14850;DHT22;7517;48.400;11.770;2022-12-05T12:32:37;10.30;79.60
14850;DHT22;7517;48.400;11.770;2022-12-05T12:35:26;10.40;79.70
14850;DHT22;7517;48.400;11.770;2022-12-05T12:38:13;10.40;79.50
14850;DHT22;7517;48.400;11.770;2022-12-05T12:40:53;10.40;79.20
14850;DHT22;7517;48.400;11.770;2022-12-05T12:43:36;10.40;79.40
14850;DHT22;7517;48.400;11.770;2022-12-05T12:46:15;10.40;79.50
14850;DHT22;7517;48.400;11.770;2022-12-05T12:49:06;10.50;79.70
14850;DHT22;7517;48.400;11.770;2022-12-05T12:51:48;10.50;79.50
14850;DHT22;7517;48.400;11.770;2022-12-05T12:54:38;10.50;79.40
14850;DHT22;7517;48.400;11.770;2022-12-05T12:57:22;10.50;79.40
14850;DHT22;7517;48.400;11.770;2022-12-05T13:00:02;10.50;79.40
14850;DHT22;7517;48.400;11.770;2022-12-05T13:02:42;10.50;79.40
14850;DHT22;7517;48.400;11.770;2022-12-05T13:05:20;10.50;79.40
14850;DHT22;7517;48.400;11.770;2022-12-05T13:07:58;10.60;79.40
14850;DHT22;7517;48.400;11.770;2022-12-05T13:10:33;10.60;79.30
14850;DHT22;7517;48.400;11.770;2022-12-05T13:13:05;10.60;79.20
14850;DHT22;7517;48.400;11.770;2022-12-05T13:15:39;10.60;79.20
14850;DHT22;7517;48.400;11.770;2022-12-05T13:18:15;10.60;79.10
14850;DHT22;7517;48.400;11.770;2022-12-05T13:20:45;10.60;79.10
14850;DHT22;7517;48.400;11.770;2022-12-05T13:23:18;10.60;79.00
14850;DHT22;7517;48.400;11.770;2022-12-05T13:25:49;10.60;78.90
14850;DHT22;7517;48.400;11.770;2022-12-05T13:28:26;10.60;78.90
14850;DHT22;7517;48.400;11.770;2022-12-05T13:30:57;10.60;78.80
14850;DHT22;7517;48.400;11.770;2022-12-05T13:33:32;10.60;78.80
14850;DHT22;7517;48.400;11.770;2022-12-05T13:36:10;10.60;78.80
14850;DHT22;7517;48.400;11.770;2022-12-05T13:39:02;10.60;78.80
14850;DHT22;7517;48.400;11.770;2022-12-05T13:41:51;10.60;78.80
14850;DHT22;7517;48.400;11.770;2022-12-05T13:44:40;10.60;78.70
14850;DHT22;7517;48.400;11.770;2022-12-05T13:47:34;10.60;78.80
14850;DHT22;7517;48.400;11.770;2022-12-05T13:50:17;10.60;78.70
14850;DHT22;7517;48.400;11.770;2022-12-05T13:52:50;10.60;78.80
14850;DHT22;7517;48.400;11.770;2022-12-05T13:55:26;10.60;78.70
14850;DHT22;7517;48.400;11.770;2022-12-05T13:57:57;10.60;78.50
14850;DHT22;7517;48.400;11.770;2022-12-05T14:00:31;10.60;78.60
14850;DHT22;7517;48.400;11.770;2022-12-05T14:03:13;10.60;78.60
14850;DHT22;7517;48.400;11.770;2022-12-05T14:05:49;10.50;78.60
14850;DHT22;7517;48.400;11.770;2022-12-05T14:08:49;10.60;78.80
14850;DHT22;7517;48.400;11.770;2022-12-05T14:11:21;10.60;78.80
14850;DHT22;7517;48.400;11.770;2022-12-05T14:13:49;10.60;78.80
14850;DHT22;7517;48.400;11.770;2022-12-05T14:16:49;10.50;78.80
14850;DHT22;7517;48.400;11.770;2022-12-05T14:19:44;10.70;78.50
14850;DHT22;7517;48.400;11.770;2022-12-05T14:22:42;10.70;78.40
14850;DHT22;7517;48.400;11.770;2022-12-05T14:28:47;10.60;78.00
14850;DHT22;7517;48.400;11.770;2022-12-05T14:31:39;10.60;78.00
14850;DHT22;7517;48.400;11.770;2022-12-05T14:34:20;10.60;78.10
14850;DHT22;7517;48.400;11.770;2022-12-05T14:36:55;10.60;78.20
14850;DHT22;7517;48.400;11.770;2022-12-05T14:39:37;10.60;78.10
14850;DHT22;7517;48.400;11.770;2022-12-05T14:42:20;10.60;77.90
14850;DHT22;7517;48.400;11.770;2022-12-05T14:44:57;10.60;78.00
14850;DHT22;7517;48.400;11.770;2022-12-05T14:47:29;10.60;78.20
14850;DHT22;7517;48.400;11.770;2022-12-05T14:49:59;10.60;78.40
14850;DHT22;7517;48.400;11.770;2022-12-05T14:53:33;10.50;78.30
14850;DHT22;7517;48.400;11.770;2022-12-05T14:56:15;10.60;78.10
14850;DHT22;7517;48.400;11.770;2022-12-05T14:58:52;10.60;78.20
14850;DHT22;7517;48.400;11.770;2022-12-05T15:01:27;10.50;78.20
14850;DHT22;7517;48.400;11.770;2022-12-05T15:04:17;10.50;78.20
14850;DHT22;7517;48.400;11.770;2022-12-05T15:06:52;10.50;78.30
14850;DHT22;7517;48.400;11.770;2022-12-05T15:09:49;10.50;78.40
14850;DHT22;7517;48.400;11.770;2022-12-05T15:12:24;10.50;78.20
14850;DHT22;7517;48.400;11.770;2022-12-05T15:15:03;10.50;78.30
14850;DHT22;7517;48.400;11.770;2022-12-05T15:17:38;10.50;78.40
14850;DHT22;7517;48.400;11.770;2022-12-05T15:20:19;10.50;78.50
14850;DHT22;7517;48.400;11.770;2022-12-05T15:22:52;10.60;78.30
14850;DHT22;7517;48.400;11.770;2022-12-05T15:25:27;10.50;78.30
14850;DHT22;7517;48.400;11.770;2022-12-05T15:27:59;10.50;78.40
14850;DHT22;7517;48.400;11.770;2022-12-05T15:30:31;10.50;78.40
14850;DHT22;7517;48.400;11.770;2022-12-05T15:33:00;10.50;78.40
14850;DHT22;7517;48.400;11.770;2022-12-05T15:35:31;10.50;78.50
14850;DHT22;7517;48.400;11.770;2022-12-05T15:38:03;10.50;78.50
14850;DHT22;7517;48.400;11.770;2022-12-05T15:40:44;10.60;78.50
14850;DHT22;7517;48.400;11.770;2022-12-05T15:43:28;10.60;78.40
14850;DHT22;7517;48.400;11.770;2022-12-05T15:46:17;10.60;78.30
14850;DHT22;7517;48.400;11.770;2022-12-05T15:48:48;10.60;78.50
14850;DHT22;7517;48.400;11.770;2022-12-05T15:51:17;10.60;78.60
14850;DHT22;7517;48.400;11.770;2022-12-05T15:53:49;10.60;78.50
14850;DHT22;7517;48.400;11.770;2022-12-05T15:56:23;10.60;78.50
14850;DHT22;7517;48.400;11.770;2022-12-05T15:58:58;10.60;78.40
14850;DHT22;7517;48.400;11.770;2022-12-05T16:01:32;10.60;78.40
14850;DHT22;7517;48.400;11.770;2022-12-05T16:04:10;10.60;78.30
14850;DHT22;7517;48.400;11.770;2022-12-05T16:06:44;10.60;78.10
14850;DHT22;7517;48.400;11.770;2022-12-05T16:09:15;10.60;78.00
14850;DHT22;7517;48.400;11.770;2022-12-05T16:11:54;10.50;77.90
14850;DHT22;7517;48.400;11.770;2022-12-05T16:14:25;10.50;77.60
14850;DHT22;7517;48.400;11.770;2022-12-05T16:16:59;10.50;77.80
14850;DHT22;7517;48.400;11.770;2022-12-05T16:19:28;10.50;77.80
14850;DHT22;7517;48.400;11.770;2022-12-05T16:22:00;10.50;78.00
14850;DHT22;7517;48.400;11.770;2022-12-05T16:24:39;10.50;78.00
14850;DHT22;7517;48.400;11.770;2022-12-05T16:27:14;10.50;77.90
14850;DHT22;7517;48.400;11.770;2022-12-05T16:29:43;10.40;77.80
14850;DHT22;7517;48.400;11.770;2022-12-05T16:32:17;10.40;77.90
14850;DHT22;7517;48.400;11.770;2022-12-05T16:34:47;10.40;78.00
14850;DHT22;7517;48.400;11.770;2022-12-05T16:37:21;10.40;78.00
14850;DHT22;7517;48.400;11.770;2022-12-05T16:39:51;10.40;77.90